Time;durP1;ratioP1;P1;durP2;ratioP2;P2;SDS_P1;SDS_P2;PMS_P1;PMS_P2;Temp;Humidity;BMP_temperature;BMP_pressure;BME280_temperature;BME280_humidity;BME280_pressure;Samples;Min_cycle;Max_cycle;Signal;HPM_P1;HPM_P2
2023/12/01 00:02:25;;;;;;;10.25;8.00;;;;;;;-145.63;51.60;39172.88;5068521;28;20021;-66
2023/12/01 00:04:52;;;;;;;10.27;7.43;;;;;;;-145.63;51.68;39165.06;5082502;28;20087;-66
2023/12/01 00:07:18;;;;;;;8.75;7.38;;;;;;;-145.63;51.00;39184.59;5070565;28;20062;-66
2023/12/01 00:09:44;;;;;;;10.15;7.82;;;;;;;-145.63;51.42;39104.44;5083519;28;20062;-66
2023/12/01 00:12:10;;;;;;;10.60;7.75;;;;;;;-145.63;51.18;39180.69;5083453;28;20063;-65
2023/12/01 00:14:35;;;;;;;8.18;7.13;;;;;;;-145.63;50.49;39149.41;5076459;28;20025;-67
2023/12/01 00:17:01;;;;;;;9.48;7.00;;;;;;;-145.63;50.51;39194.38;5071205;28;20197;-67
2023/12/01 00:19:27;;;;;;;7.20;6.40;;;;;;;-145.63;50.32;39170.91;5083023;28;20331;-66
2023/12/01 00:21:53;;;;;;;7.85;6.30;;;;;;;-145.63;49.89;39151.38;5065618;28;20021;-67
2023/12/01 00:24:18;;;;;;;7.97;6.78;;;;;;;-145.63;49.82;39035.97;5075514;28;20031;-67
2023/12/01 00:26:45;;;;;;;7.70;6.78;;;;;;;-145.63;49.92;39176.78;5075199;28;20032;-67
2023/12/01 00:29:11;;;;;;;8.15;6.55;;;;;;;-145.63;49.90;39180.69;5065769;28;20388;-67
2023/12/01 00:31:37;;;;;;;7.53;6.63;;;;;;;-145.63;50.02;39161.13;5083284;28;20032;-66
2023/12/01 00:34:03;;;;;;;8.88;6.93;;;;;;;-145.63;50.14;39170.91;5082646;28;20031;-67
2023/12/01 00:36:29;;;;;;;8.18;7.05;;;;;;;-145.63;49.75;39176.78;5071968;28;20032;-68
2023/12/01 00:38:54;;;;;;;8.77;7.25;;;;;;;-145.63;50.45;39143.53;5082469;28;20036;-66
2023/12/01 00:41:20;;;;;;;9.20;7.45;;;;;;;-145.63;50.42;39161.13;5078532;28;20063;-66
2023/12/01 00:43:46;;;;;;;9.35;7.05;;;;;;;-145.63;50.06;39200.25;5062918;28;20201;-65
2023/12/01 00:46:12;;;;;;;8.90;7.05;;;;;;;-145.63;50.63;39208.06;5082301;28;20020;-66
2023/12/01 00:48:37;;;;;;;10.30;7.40;;;;;;;-145.63;51.08;39200.25;5094560;28;20209;-67
2023/12/01 00:51:03;;;;;;;9.23;6.97;;;;;;;-145.63;49.85;39141.59;5077765;28;20065;-67
2023/12/01 00:53:29;;;;;;;8.57;7.18;;;;;;;-145.63;50.14;39208.06;5077216;28;20381;-66
2023/12/01 00:55:55;;;;;;;8.63;7.07;;;;;;;-145.63;50.49;39178.75;5062977;28;20328;-66
2023/12/01 00:58:20;;;;;;;8.60;7.30;;;;;;;-145.63;50.32;39157.22;5081573;28;20025;-67
2023/12/01 01:00:46;;;;;;;8.75;6.90;;;;;;;-145.63;49.96;39192.44;5066679;28;20021;-67
2023/12/01 01:03:12;;;;;;;8.13;7.10;;;;;;;-145.63;49.98;39155.28;5073508;28;20028;-67
2023/12/01 01:05:38;;;;;;;9.38;7.15;;;;;;;-145.63;50.16;39141.59;5074947;28;20032;-67
2023/12/01 01:08:03;;;;;;;10.63;7.30;;;;;;;-145.63;49.63;39084.88;5076162;28;20189;-67
2023/12/01 01:10:29;;;;;;;7.88;6.72;;;;;;;-145.63;49.93;38727.00;5082309;28;20020;-68
2023/12/01 01:12:55;;;;;;;9.30;7.22;;;;;;;-145.63;50.63;39186.56;5067663;28;20043;-67
2023/12/01 01:15:20;;;;;;;8.00;6.68;;;;;;;-145.63;49.95;39176.78;5066322;28;20029;-68
2023/12/01 01:17:46;;;;;;;9.32;7.05;;;;;;;-145.63;49.96;39186.56;5073349;28;20020;-68
2023/12/01 01:20:12;;;;;;;10.82;8.45;;;;;;;-145.63;50.59;39157.22;5083320;28;20028;-67
2023/12/01 01:22:38;;;;;;;10.38;8.00;;;;;;;-145.63;50.33;39176.78;5065896;28;20092;-67
2023/12/01 01:25:07;;;;;;;10.57;8.15;;;;;;;-145.63;50.70;39167.00;5083761;28;20029;-67
2023/12/01 01:27:33;;;;;;;10.38;8.38;;;;;;;-145.63;50.89;39227.63;5072199;28;20029;-67
2023/12/01 01:29:58;;;;;;;11.15;8.18;;;;;;;-145.63;51.19;39163.09;5075211;28;20217;-67
2023/12/01 01:32:24;;;;;;;12.07;9.18;;;;;;;-145.63;51.48;39161.13;5085623;28;20024;-67
2023/12/01 01:34:50;;;;;;;11.90;8.77;;;;;;;-145.63;51.50;39190.47;5085718;28;20317;-67
2023/12/01 01:37:16;;;;;;;13.10;9.68;;;;;;;-145.63;52.07;39182.66;5085455;28;20071;-67
2023/12/01 01:39:42;;;;;;;13.20;9.82;;;;;;;-145.63;52.28;39161.13;5076682;28;20036;-67
2023/12/01 01:42:07;;;;;;;11.98;9.07;;;;;;;-145.63;52.68;39170.91;5085824;28;20024;-68
2023/12/01 01:44:33;;;;;;;12.95;9.98;;;;;;;-145.63;52.81;39147.44;5090707;28;20023;-67
2023/12/01 01:46:59;;;;;;;11.13;8.60;;;;;;;-145.63;52.63;39172.88;5105001;28;20028;-66
2023/12/01 01:49:26;;;;;;;12.93;9.43;;;;;;;-145.63;52.24;39184.59;5084670;28;20086;-66
2023/12/01 01:51:54;;;;;;;12.68;9.63;;;;;;;-145.63;52.63;39225.69;5085371;28;20051;-66
2023/12/01 01:54:25;;;;;;;13.45;9.68;;;;;;;-145.63;53.09;39186.56;5084221;28;20032;-64
2023/12/01 01:56:55;;;;;;;14.07;10.23;;;;;;;-145.63;52.76;39151.38;5077364;28;20047;-65
2023/12/01 01:59:22;;;;;;;12.77;10.32;;;;;;;-145.63;53.04;39170.91;5068877;28;20025;-65
2023/12/01 02:01:48;;;;;;;14.52;10.25;;;;;;;-145.63;53.08;39123.97;5085159;28;20024;-67
2023/12/01 02:04:15;;;;;;;13.77;10.43;;;;;;;-145.63;52.25;39190.47;5085173;28;20062;-66
2023/12/01 02:06:42;;;;;;;13.32;9.60;;;;;;;-145.63;51.58;39182.66;5070264;28;20060;-67
2023/12/01 02:09:07;;;;;;;11.45;9.20;;;;;;;-145.63;51.62;39165.06;5065093;28;20071;-67
2023/12/01 02:11:33;;;;;;;12.57;10.20;;;;;;;-145.63;51.52;39172.88;5074378;28;20036;-67
2023/12/01 02:13:59;;;;;;;12.00;9.80;;;;;;;-145.63;51.79;39176.78;5083425;28;20341;-67
2023/12/01 02:16:26;;;;;;;13.45;10.48;;;;;;;-145.63;51.18;39172.88;5065252;28;20052;-67
2023/12/01 02:18:55;;;;;;;13.45;10.30;;;;;;;-145.63;51.75;39184.59;5080902;28;20027;-67
2023/12/01 02:21:25;;;;;;;14.45;10.68;;;;;;;-145.63;51.47;39233.50;5073076;28;20039;-67
2023/12/01 02:23:52;;;;;;;13.25;11.18;;;;;;;-145.63;51.98;39172.88;5071733;28;20029;-69
2023/12/01 02:26:18;;;;;;;15.25;10.65;;;;;;;-145.63;52.06;39235.47;5081817;28;20274;-67
2023/12/01 02:28:43;;;;;;;13.65;9.55;;;;;;;-145.63;51.24;39172.88;5065102;28;20096;-69
2023/12/01 02:31:09;;;;;;;13.82;11.18;;;;;;;-145.63;51.62;39202.22;5082684;28;20024;-68
2023/12/01 02:33:35;;;;;;;14.57;10.90;;;;;;;-145.63;51.33;39188.53;5084671;28;20055;-68
2023/12/01 02:36:03;;;;;;;14.05;11.13;;;;;;;-145.63;51.56;39180.69;5074318;28;20264;-67
2023/12/01 02:38:29;;;;;;;15.82;11.60;;;;;;;-145.63;51.61;39163.09;5068640;28;20155;-67
2023/12/01 02:40:55;;;;;;;13.38;10.85;;;;;;;-145.63;51.89;39176.78;5084435;28;20060;-67
2023/12/01 02:43:21;;;;;;;11.73;9.80;;;;;;;-145.63;51.54;39102.47;5084474;28;20032;-68
2023/12/01 02:45:47;;;;;;;12.50;9.90;;;;;;;-145.63;50.87;39182.66;5099429;28;20024;-68
2023/12/01 02:48:14;;;;;;;12.02;9.82;;;;;;;-145.63;51.52;38238.16;5094495;28;20028;-68
2023/12/01 02:50:40;;;;;;;14.13;10.00;;;;;;;-145.63;51.23;39153.31;5082951;28;20039;-67
2023/12/01 02:53:06;;;;;;;13.23;9.73;;;;;;;-145.63;50.54;39149.41;5084200;28;20044;-67
2023/12/01 02:55:32;;;;;;;13.77;9.85;;;;;;;-145.63;51.27;39165.06;5084299;28;20021;-67
2023/12/01 02:57:57;;;;;;;12.32;10.18;;;;;;;-145.63;50.87;39178.75;5067531;28;20020;-68
2023/12/01 03:00:24;;;;;;;14.07;10.45;;;;;;;-145.63;50.36;39163.09;5080095;28;20324;-67
2023/12/01 03:02:51;;;;;;;12.52;9.98;;;;;;;-145.63;50.67;39165.06;5083944;28;20020;-67
2023/12/01 03:05:18;;;;;;;13.93;10.45;;;;;;;-145.63;50.62;39188.53;5081463;28;20035;-67
2023/12/01 03:07:43;;;;;;;13.40;10.85;;;;;;;-145.63;50.85;39194.38;5074686;28;20050;-66
2023/12/01 03:10:10;;;;;;;12.93;9.52;;;;;;;-145.63;50.38;39182.66;5083746;28;20052;-67
2023/12/01 03:12:37;;;;;;;12.60;9.68;;;;;;;-145.63;50.75;39153.31;5082702;28;20089;-68
2023/12/01 03:15:07;;;;;;;12.68;9.77;;;;;;;-145.63;51.02;39167.00;5073936;28;20041;-67
2023/12/01 03:17:32;;;;;;;11.50;9.00;;;;;;;-145.63;50.87;39163.09;5067884;28;20088;-66
2023/12/01 03:19:59;;;;;;;12.57;10.15;;;;;;;-145.63;50.26;39147.44;5083704;28;20304;-68
2023/12/01 03:22:25;;;;;;;13.30;10.77;;;;;;;-145.63;51.26;39174.84;5065226;28;20035;-66
2023/12/01 03:24:53;;;;;;;13.57;10.43;;;;;;;-145.63;50.38;39192.44;5083223;28;20099;-67
2023/12/01 03:27:19;;;;;;;13.90;10.32;;;;;;;-145.63;50.53;39180.69;5072485;28;20024;-67
2023/12/01 03:29:48;;;;;;;14.73;10.88;;;;;;;-145.63;51.11;39200.25;5069295;28;20024;-66
2023/12/01 03:32:15;;;;;;;14.48;10.98;;;;;;;-145.63;51.25;39172.88;5081900;28;20048;-67
2023/12/01 03:34:40;;;;;;;14.20;10.82;;;;;;;-145.63;50.91;39030.13;5082500;28;20075;-67
2023/12/01 03:37:06;;;;;;;13.48;10.45;;;;;;;-145.63;50.35;39149.41;5065849;28;20025;-66
2023/12/01 03:39:32;;;;;;;16.10;11.50;;;;;;;-145.63;51.35;39190.47;5075598;28;20024;-67
2023/12/01 03:41:57;;;;;;;14.48;10.80;;;;;;;-145.63;50.11;39180.69;5075511;28;20088;-65
2023/12/01 03:44:23;;;;;;;15.18;10.48;;;;;;;-145.63;50.57;39165.06;5081726;28;20028;-65
2023/12/01 03:46:50;;;;;;;17.58;11.50;;;;;;;-145.63;50.59;39184.59;5083155;28;20021;-65
2023/12/01 03:49:15;;;;;;;14.73;11.13;;;;;;;-145.63;50.62;39176.78;5083044;28;20052;-66
2023/12/01 03:51:41;;;;;;;13.32;9.98;;;;;;;-145.63;50.15;39168.97;5083058;28;20028;-66
2023/12/01 03:54:07;;;;;;;14.23;11.20;;;;;;;-145.63;50.74;39196.34;5083243;28;20066;-66
2023/12/01 03:56:36;;;;;;;14.20;11.15;;;;;;;-145.63;50.89;39145.50;5078867;28;20068;-67
2023/12/01 03:59:09;;;;;;;15.55;10.80;;;;;;;-145.63;50.47;39182.66;5062915;28;20108;-67
2023/12/01 04:01:39;;;;;;;14.63;10.55;;;;;;;-145.63;50.46;39184.59;5063058;28;20055;-68
2023/12/01 04:04:05;;;;;;;16.33;11.88;;;;;;;-145.63;50.99;39188.53;5079917;28;20319;-68
2023/12/01 04:06:33;;;;;;;16.98;12.15;;;;;;;-145.63;50.67;39178.75;5070879;28;20029;-68
2023/12/01 04:09:05;;;;;;;18.20;12.60;;;;;;;-145.63;50.70;38969.50;5061827;28;20096;-68
2023/12/01 04:11:34;;;;;;;15.32;12.00;;;;;;;-145.63;50.44;39157.22;5072567;28;20051;-67
2023/12/01 04:14:00;;;;;;;16.15;12.20;;;;;;;-145.63;51.04;39208.06;5082747;28;20032;-67
2023/12/01 04:16:26;;;;;;;17.33;12.70;;;;;;;-145.63;50.92;39172.88;5061855;28;20086;-67
2023/12/01 04:18:52;;;;;;;18.45;13.07;;;;;;;-145.63;50.96;39182.66;5079340;28;20040;-68
2023/12/01 04:21:18;;;;;;;18.05;12.93;;;;;;;-145.63;51.02;39174.84;5072720;28;20029;-68
2023/12/01 04:23:44;;;;;;;19.20;13.63;;;;;;;-145.63;51.50;39219.81;5068146;28;20312;-69
2023/12/01 04:26:12;;;;;;;19.00;13.07;;;;;;;-145.63;50.50;39196.34;5082024;28;20024;-70
2023/12/01 04:28:38;;;;;;;16.75;12.85;;;;;;;-145.63;51.15;39165.06;5062385;28;20096;-67
2023/12/01 04:31:05;;;;;;;19.30;13.15;;;;;;;-145.63;51.09;39196.34;5062272;28;20313;-66
2023/12/01 04:33:32;;;;;;;18.13;13.50;;;;;;;-145.63;50.62;39206.13;5074459;28;20035;-67
2023/12/01 04:35:58;;;;;;;19.10;13.00;;;;;;;-145.63;51.08;39180.69;5081145;28;20335;-70
2023/12/01 04:38:24;;;;;;;16.45;12.00;;;;;;;-145.63;50.42;39200.25;5080018;28;20297;-71
2023/12/01 04:40:54;;;;;;;19.13;13.43;;;;;;;-145.63;50.64;39221.78;5062485;28;20033;-70
2023/12/01 04:43:20;;;;;;;20.57;13.63;;;;;;;-145.63;50.62;39178.75;5080991;28;20032;-70
2023/12/01 04:45:46;;;;;;;16.70;12.60;;;;;;;-145.63;51.18;39208.06;5097321;28;20416;-71
2023/12/01 04:48:12;;;;;;;18.10;13.18;;;;;;;-145.63;50.87;39200.25;5088569;28;20029;-70
2023/12/01 04:50:48;;;;;;;15.95;12.13;;;;;;;-145.63;50.49;39206.13;5085793;28;20281;-70
2023/12/01 04:53:14;;;;;;;19.10;12.73;;;;;;;-145.63;51.31;39165.06;5084938;28;20095;-70
2023/12/01 04:55:40;;;;;;;15.88;12.38;;;;;;;-145.63;51.10;39192.44;5086175;28;20150;-70
2023/12/01 04:58:06;;;;;;;17.70;13.75;;;;;;;-145.63;50.99;39192.44;5086142;28;20130;-69
2023/12/01 05:00:31;;;;;;;17.58;13.57;;;;;;;-145.63;51.22;39168.97;5074130;28;20032;-69
2023/12/01 05:03:01;;;;;;;16.35;12.45;;;;;;;-145.63;51.25;39190.47;5073128;28;20070;-69
2023/12/01 05:05:29;;;;;;;21.65;14.48;;;;;;;-145.63;51.62;39204.16;5083457;28;20363;-69
2023/12/01 05:07:59;;;;;;;18.92;13.63;;;;;;;-145.63;51.06;39264.78;5065820;28;20032;-70
2023/12/01 05:10:27;;;;;;;19.45;14.45;;;;;;;-145.63;51.65;39184.59;5066095;28;20067;-71
2023/12/01 05:13:21;;;;;;;23.42;15.18;;;;;;;-145.63;50.89;39178.75;5085485;28;20032;-70
2023/12/01 05:15:47;;;;;;;20.38;13.75;;;;;;;-145.63;52.02;39188.53;5075803;28;20042;-72
2023/12/01 05:18:13;;;;;;;19.63;13.27;;;;;;;-145.63;51.94;39235.47;5085772;28;20742;-70
2023/12/01 05:20:39;;;;;;;17.38;13.32;;;;;;;-145.63;51.45;39184.59;5081518;28;20084;-70
2023/12/01 05:23:09;;;;;;;17.48;13.20;;;;;;;-145.63;52.17;39219.81;5081009;28;20020;-70
2023/12/01 05:25:44;;;;;;;16.42;12.93;;;;;;;-145.63;51.50;39190.47;5065952;28;20020;-69
2023/12/01 05:28:11;;;;;;;19.30;13.52;;;;;;;-145.63;51.44;39204.16;5082312;28;20028;-70
2023/12/01 05:30:41;;;;;;;18.35;13.90;;;;;;;-145.63;51.41;39012.50;5073400;28;20313;-71
2023/12/01 05:33:07;;;;;;;20.42;15.40;;;;;;;-145.63;51.92;39229.59;5073138;28;20036;-69
2023/12/01 05:35:37;;;;;;;20.70;15.30;;;;;;;-145.63;52.10;39208.06;5082525;28;20222;-69
2023/12/01 05:38:04;;;;;;;18.17;13.82;;;;;;;-145.63;51.74;39255.00;5065341;28;20094;-71
2023/12/01 05:40:35;;;;;;;18.27;13.45;;;;;;;-145.63;51.53;39223.72;5085162;28;20321;-69
2023/12/01 05:43:02;;;;;;;18.83;14.80;;;;;;;-145.63;52.05;39198.31;5069879;28;20107;-70
2023/12/01 05:45:32;;;;;;;19.60;14.13;;;;;;;-145.63;51.46;39241.31;5087196;28;20032;-69
2023/12/01 05:47:59;;;;;;;19.17;14.70;;;;;;;-145.63;51.69;39239.38;5098908;28;20225;-68
2023/12/01 05:50:27;;;;;;;19.67;14.00;;;;;;;-145.63;51.08;39210.03;5085052;28;20024;-71
2023/12/01 05:52:58;;;;;;;20.83;14.77;;;;;;;-145.63;51.66;39210.03;5084232;28;20024;-69
2023/12/01 05:55:28;;;;;;;;;;;;;;;-145.63;51.37;39170.91;5085940;28;20089;-70
2023/12/01 05:57:59;;;;;;;19.65;14.45;;;;;;;-145.63;51.77;39215.91;5069790;28;19913;-70
2023/12/01 06:00:29;;;;;;;18.27;13.68;;;;;;;-145.63;52.00;38775.91;5074986;28;20024;-70
2023/12/01 06:03:01;;;;;;;18.30;12.97;;;;;;;-145.63;51.81;39180.69;5078239;28;20047;-72
2023/12/01 06:05:28;;;;;;;17.45;13.55;;;;;;;-145.63;51.73;39202.22;5065710;28;20032;-71
2023/12/01 06:07:58;;;;;;;18.48;14.30;;;;;;;-145.63;52.13;39231.53;5083497;28;20063;-70
2023/12/01 06:10:28;;;;;;;19.03;13.97;;;;;;;-145.63;51.62;39200.25;5085067;28;20323;-70
2023/12/01 06:12:55;;;;;;;17.50;12.95;;;;;;;-145.63;51.78;39194.38;5083669;28;20082;-70
2023/12/01 06:15:22;;;;;;;18.08;13.32;;;;;;;-145.63;51.68;39227.63;5083453;28;20225;-70
2023/12/01 06:17:49;;;;;;;18.70;13.10;;;;;;;-145.63;51.55;39192.44;5084562;28;20077;-70
2023/12/01 06:20:18;;;;;;;16.63;12.98;;;;;;;-145.63;51.64;39147.44;5084323;28;20020;-71
2023/12/01 06:22:49;;;;;;;17.45;13.15;;;;;;;-145.63;51.62;39215.91;5063679;28;20017;-71
2023/12/01 06:25:16;;;;;;;18.73;13.70;;;;;;;-145.63;52.10;39202.22;5064452;28;20321;-71
2023/12/01 06:27:42;;;;;;;18.80;13.63;;;;;;;-145.63;52.64;39192.44;5077116;28;20032;-71
2023/12/01 06:30:12;;;;;;;19.48;14.35;;;;;;;-145.63;51.67;39202.22;5075780;28;20029;-70
2023/12/01 06:32:45;;;;;;;17.92;12.60;;;;;;;-145.63;51.62;39045.75;5067860;28;20316;-71
2023/12/01 06:35:16;;;;;;;19.15;13.18;;;;;;;-145.63;51.12;39210.03;5084238;28;20048;-71
2023/12/01 06:37:43;;;;;;;15.93;11.73;;;;;;;-145.63;50.72;39196.34;5064345;28;20086;-71
2023/12/01 06:40:13;;;;;;;17.58;12.93;;;;;;;-145.63;51.11;39217.84;5079874;28;20243;-71
2023/12/01 06:42:45;;;;;;;16.23;11.93;;;;;;;-145.63;50.98;38887.34;5072074;28;20043;-73
2023/12/01 06:45:16;;;;;;;17.08;12.68;;;;;;;-145.63;50.79;39217.84;5078916;28;20039;-71
2023/12/01 06:47:46;;;;;;;17.75;12.40;;;;;;;-145.63;50.99;39210.03;5100058;28;20212;-72
2023/12/01 06:50:16;;;;;;;16.10;12.77;;;;;;;-145.63;51.10;39135.72;5083752;28;20032;-71
2023/12/01 06:52:49;;;;;;;17.30;12.20;;;;;;;-145.63;50.64;38672.25;5082843;28;20036;-70
2023/12/01 06:55:15;;;;;;;16.95;12.35;;;;;;;-145.63;51.26;39118.13;5083310;28;20039;-70
2023/12/01 06:57:45;;;;;;;15.85;11.93;;;;;;;-145.63;51.36;39180.69;5072570;28;20174;-70
2023/12/01 07:03:08;;;;;;;17.02;12.32;;;;;;;-145.63;51.89;39153.31;5071795;28;20049;-71
2023/12/01 07:05:35;;;;;;;16.42;11.85;;;;;;;-145.63;51.44;39131.81;5066667;28;20040;-71
2023/12/01 07:08:01;;;;;;;17.80;11.38;;;;;;;-145.63;50.74;39159.19;5083840;28;20037;-70
2023/12/01 07:10:28;;;;;;;17.02;12.27;;;;;;;-145.63;51.29;39176.78;5081774;28;20028;-69
2023/12/01 07:12:54;;;;;;;14.77;11.77;;;;;;;-145.63;50.37;39161.13;5077989;28;20087;-70
2023/12/01 07:15:22;;;;;;;15.90;12.38;;;;;;;-145.63;50.44;39182.66;5074845;28;20051;-70
2023/12/01 07:17:50;;;;;;;15.77;12.70;;;;;;;-145.63;51.01;39192.44;5068008;28;20032;-71
2023/12/01 07:20:18;;;;;;;17.92;14.02;;;;;;;-145.63;51.53;39213.94;5083516;28;20054;-69
2023/12/01 07:22:47;;;;;;;17.63;12.45;;;;;;;-145.63;50.66;39217.84;5072603;28;20028;-70
2023/12/01 07:25:25;;;;;;;17.85;13.25;;;;;;;-145.63;50.31;39225.69;5067263;28;20063;-71
2023/12/01 07:28:03;;;;;;;17.58;12.23;;;;;;;-145.63;51.20;39196.34;5077235;28;20025;-70
2023/12/01 07:30:29;;;;;;;15.85;12.50;;;;;;;-145.63;50.53;39215.91;5072012;28;20032;-71
2023/12/01 07:32:57;;;;;;;17.70;13.20;;;;;;;-145.63;50.55;39186.56;5068721;28;20097;-70
2023/12/01 07:35:22;;;;;;;17.30;13.05;;;;;;;-145.63;50.62;39149.41;5082636;28;20044;-70
2023/12/01 07:37:52;;;;;;;18.50;13.85;;;;;;;-145.63;50.49;39192.44;5063255;28;20056;-71
2023/12/01 07:40:19;;;;;;;18.58;14.00;;;;;;;-145.63;50.70;39174.84;5078743;28;20043;-71
2023/12/01 07:42:50;;;;;;;17.75;13.05;;;;;;;-145.63;49.84;39155.28;5083137;28;20021;-70
2023/12/01 07:45:19;;;;;;;19.67;12.95;;;;;;;-145.63;50.96;39157.22;5073380;28;20052;-70
2023/12/01 07:47:48;;;;;;;17.92;12.95;;;;;;;-145.63;51.56;39243.28;5078430;28;20016;-69
2023/12/01 07:50:18;;;;;;;17.52;13.80;;;;;;;-145.63;50.17;39137.69;5083021;28;20028;-70
2023/12/01 07:52:46;;;;;;;19.08;13.63;;;;;;;-145.63;50.24;38928.44;5063188;28;20037;-70
2023/12/01 07:55:12;;;;;;;17.88;13.50;;;;;;;-145.63;50.63;39143.53;5077243;28;20047;-71
2023/12/01 07:57:38;;;;;;;18.40;13.15;;;;;;;-145.63;50.77;39149.41;5081750;28;20040;-70
2023/12/01 08:00:06;;;;;;;18.60;14.00;;;;;;;-145.63;50.09;39176.78;5076490;28;20352;-70
2023/12/01 08:02:32;;;;;;;19.33;13.82;;;;;;;-145.63;50.34;39163.09;5064999;28;20097;-70
2023/12/01 08:04:59;;;;;;;16.80;13.40;;;;;;;-145.63;50.71;39198.31;5080877;28;20097;-70
2023/12/01 08:07:25;;;;;;;18.25;13.98;;;;;;;-145.63;50.76;39157.22;5072763;28;20016;-70
2023/12/01 08:09:50;;;;;;;19.13;13.05;;;;;;;-145.63;50.77;39159.19;5082931;28;20029;-70
2023/12/01 08:12:18;;;;;;;17.80;13.77;;;;;;;-145.63;50.77;39196.34;5081116;28;20208;-71
2023/12/01 08:14:45;;;;;;;20.13;14.55;;;;;;;-145.63;51.09;39172.88;5077888;28;20032;-73
2023/12/01 08:17:10;;;;;;;17.02;13.45;;;;;;;-145.63;50.82;39180.69;5083862;28;20049;-71
2023/12/01 08:19:36;;;;;;;22.08;14.25;;;;;;;-145.63;51.01;39172.88;5081737;28;20305;-71
2023/12/01 08:22:02;;;;;;;19.55;13.98;;;;;;;-145.63;50.73;39192.44;5085814;28;20024;-69
2023/12/01 08:24:27;;;;;;;17.10;12.70;;;;;;;-145.63;51.35;39163.09;5085720;28;20313;-69
2023/12/01 08:26:53;;;;;;;18.80;13.60;;;;;;;-145.63;51.72;39176.78;5082465;28;20290;-70
2023/12/01 08:29:19;;;;;;;19.45;13.90;;;;;;;-145.63;51.07;39180.69;5066614;28;20090;-70
2023/12/01 08:31:45;;;;;;;18.13;14.68;;;;;;;-145.63;50.51;39149.41;5086376;28;20242;-72
2023/12/01 08:34:11;;;;;;;17.95;12.82;;;;;;;-145.63;51.22;39178.75;5086801;28;20037;-69
2023/12/01 08:36:37;;;;;;;18.60;13.48;;;;;;;-145.63;51.55;39159.19;5076160;28;20032;-71
2023/12/01 08:39:04;;;;;;;21.85;13.95;;;;;;;-145.63;51.36;39186.56;5066965;28;20017;-72
2023/12/01 08:41:30;;;;;;;17.98;13.40;;;;;;;-145.63;51.01;39172.88;5066563;28;20092;-71
2023/12/01 08:43:56;;;;;;;18.15;13.93;;;;;;;-145.63;50.99;39210.03;5065539;28;20025;-70
2023/12/01 08:46:21;;;;;;;16.75;13.85;;;;;;;-145.63;51.14;39260.88;5098603;28;20081;-71
2023/12/01 08:48:47;;;;;;;20.42;14.80;;;;;;;-145.63;51.21;39251.09;5094889;28;20215;-71
2023/12/01 08:51:13;;;;;;;17.60;13.90;;;;;;;-145.63;51.96;39225.69;5085928;28;20016;-71
2023/12/01 08:53:39;;;;;;;19.08;14.18;;;;;;;-145.63;51.96;39170.91;5083517;28;20104;-72
2023/12/01 08:56:05;;;;;;;18.60;13.98;;;;;;;-145.63;52.09;39167.00;5071390;28;20074;-71
2023/12/01 08:58:31;;;;;;;18.85;14.30;;;;;;;-145.63;52.80;39188.53;5068388;28;20029;-70
2023/12/01 09:00:56;;;;;;;16.42;13.25;;;;;;;-145.63;52.71;39180.69;5066074;28;20080;-71
2023/12/01 09:03:22;;;;;;;18.48;14.82;;;;;;;-145.63;53.11;39174.84;5077592;28;20206;-72
2023/12/01 09:05:48;;;;;;;19.23;14.65;;;;;;;-145.63;52.66;39192.44;5086132;28;20040;-71
2023/12/01 09:08:15;;;;;;;22.17;16.30;;;;;;;-145.63;53.36;39311.72;5085811;28;20031;-71
2023/12/01 09:10:41;;;;;;;18.77;15.25;;;;;;;-145.63;52.87;39219.81;5084785;28;20025;-72
2023/12/01 09:13:08;;;;;;;20.77;15.07;;;;;;;-145.63;52.27;39227.63;5085184;28;20043;-71
2023/12/01 09:15:34;;;;;;;21.40;16.15;;;;;;;-145.63;52.34;39182.66;5085972;28;20313;-70
2023/12/01 09:17:59;;;;;;;20.98;15.70;;;;;;;-145.63;51.94;39188.53;5081111;28;20033;-71
2023/12/01 09:20:25;;;;;;;23.60;17.38;;;;;;;-145.63;52.56;39172.88;5065840;28;20029;-71
2023/12/01 09:22:51;;;;;;;25.10;17.83;;;;;;;-145.63;52.45;39186.56;5085832;28;20031;-71
2023/12/01 09:25:17;;;;;;;25.92;17.52;;;;;;;-145.63;52.56;39190.47;5070433;28;20371;-70
2023/12/01 09:27:44;;;;;;;23.67;18.15;;;;;;;-145.63;53.34;39184.59;5077095;28;20032;-71
2023/12/01 09:30:13;;;;;;;24.02;18.40;;;;;;;-145.63;52.71;39212.00;5078454;28;20221;-70
2023/12/01 09:32:40;;;;;;;27.80;18.73;;;;;;;-145.63;52.86;39186.56;5065221;28;20218;-70
2023/12/01 09:35:06;;;;;;;24.73;18.05;;;;;;;-145.63;53.63;39174.84;5085720;28;20051;-70
2023/12/01 09:37:32;;;;;;;23.75;18.92;;;;;;;-145.63;53.17;39172.88;5068077;28;20025;-71
2023/12/01 09:39:58;;;;;;;24.30;18.13;;;;;;;-145.63;53.21;39192.44;5077896;28;20074;-72
2023/12/01 09:42:24;;;;;;;25.42;18.77;;;;;;;-145.63;53.75;39174.84;5084572;28;20204;-70
2023/12/01 09:44:57;;;;;;;28.17;20.85;;;;;;;-145.63;53.50;39212.00;5088424;28;20053;-69
2023/12/01 09:47:27;;;;;;;25.45;18.75;;;;;;;-145.63;53.52;38394.59;5105034;28;20027;-68
2023/12/01 09:49:53;;;;;;;28.90;20.52;;;;;;;-145.63;53.53;39194.38;5082167;28;20047;-69
2023/12/01 09:52:18;;;;;;;27.60;21.00;;;;;;;-145.63;53.08;39159.19;5077259;28;20029;-70
2023/12/01 09:54:44;;;;;;;27.98;19.90;;;;;;;-145.63;52.86;39163.09;5078116;28;20067;-70
2023/12/01 09:57:10;;;;;;;31.65;22.58;;;;;;;-145.63;53.32;39204.16;5078612;28;20539;-70
2023/12/01 09:59:36;;;;;;;31.45;22.20;;;;;;;-145.63;52.55;39172.88;5074397;28;20071;-69
2023/12/01 10:02:03;;;;;;;34.03;23.33;;;;;;;-145.63;53.27;39157.22;5081139;28;20099;-70
2023/12/01 10:04:30;;;;;;;33.80;23.17;;;;;;;-145.63;52.93;39159.19;5066717;28;20451;-71
2023/12/01 10:06:57;;;;;;;32.78;22.63;;;;;;;-145.63;52.31;39188.53;5074139;28;20037;-72
2023/12/01 10:09:33;;;;;;;36.75;24.35;;;;;;;-145.63;53.12;39204.16;5079937;28;20058;-69
2023/12/01 10:12:09;;;;;;;37.40;24.70;;;;;;;-145.63;53.63;39194.38;5072240;28;20035;-70
2023/12/01 10:14:35;;;;;;;37.40;24.08;;;;;;;-145.63;52.98;39251.09;5081168;28;20044;-69
2023/12/01 10:17:03;;;;;;;34.85;24.38;;;;;;;-145.63;52.95;38840.44;5082563;28;20032;-69
2023/12/01 10:19:33;;;;;;;37.97;25.00;;;;;;;-145.63;52.42;39190.47;5065968;28;20193;-69
2023/12/01 10:22:00;;;;;;;36.30;24.05;;;;;;;-145.63;52.78;39176.78;5075175;28;20037;-70
2023/12/01 10:24:26;;;;;;;36.80;24.42;;;;;;;-145.63;53.08;39176.78;5082951;28;20043;-69
2023/12/01 10:26:54;;;;;;;40.50;25.50;;;;;;;-145.63;52.88;39219.81;5081155;28;20248;-70
2023/12/01 10:29:32;;;;;;;34.92;25.10;;;;;;;-145.63;53.46;39251.09;5063796;28;20021;-69
2023/12/01 10:32:11;;;;;;;37.22;23.48;;;;;;;-145.63;53.43;39253.06;5076080;28;20096;-69
2023/12/01 10:34:38;;;;;;;33.58;23.08;;;;;;;-145.63;52.80;39231.53;5082192;28;20395;-69
2023/12/01 10:37:04;;;;;;;33.05;22.95;;;;;;;-145.63;53.19;39051.63;5070542;28;20127;-70
2023/12/01 10:39:30;;;;;;;32.42;21.70;;;;;;;-145.63;53.65;39215.91;5071884;28;20025;-70
2023/12/01 10:41:58;;;;;;;28.80;21.48;;;;;;;-145.63;53.07;39212.00;5082653;28;20025;-69
2023/12/01 10:44:27;;;;;;;35.92;22.67;;;;;;;-145.63;53.33;39249.16;5083032;28;20012;-69
2023/12/01 10:46:54;;;;;;;35.00;21.58;;;;;;;-145.63;53.76;39215.91;5102500;28;20031;-70
2023/12/01 10:49:21;;;;;;;31.65;22.73;;;;;;;-145.63;53.18;39219.81;5082431;28;20033;-69
2023/12/01 10:51:55;;;;;;;32.28;21.95;;;;;;;-145.63;52.79;38680.06;5083688;28;20021;-68
2023/12/01 10:54:23;;;;;;;32.20;22.35;;;;;;;-145.63;53.24;38959.72;5076750;28;20230;-70
2023/12/01 10:57:17;;;;;;;31.70;22.15;;;;;;;-145.63;53.75;39077.06;5065916;28;20021;-70
2023/12/01 10:59:51;;;;;;;29.08;21.95;;;;;;;-145.63;53.19;39057.50;5067726;28;20084;-69
2023/12/01 11:02:18;;;;;;;31.73;23.17;;;;;;;-145.63;53.56;39200.25;5082913;28;20057;-69
2023/12/01 11:04:46;;;;;;;28.30;20.33;;;;;;;-145.63;54.07;39274.56;5078919;28;20036;-69
2023/12/01 11:07:20;;;;;;;27.75;21.60;;;;;;;-145.63;55.06;39206.13;5082717;28;20024;-69
2023/12/01 11:10:17;;;;;;;28.75;21.38;;;;;;;-145.63;54.78;39202.22;5082587;28;20087;-69